• Join FlightAware (Why Join?)
  • Login
  • US Flag 
04:55PM EST


 

Airport Tracker/Info


-or-


 

Live Flight TrackerFlight Track Log ✈ SWA1423 ✈ 13-Apr-2013 ✈ KMDW - KSJC

Flight Track Log - Related Links

Times and Time Zones

All times are in EDT time to prevent confusion due to time zone crossing. See the SWA1423 flight status page for this flight to view local times or setup timezone preferences in your user account.

Time Position Orientation Groundspeed Altitude Reporting Facility
EDT Latitude Longitude Course Direction KTS MPH feet Rate Location/Type
08:38PM 41.7667 -87.7833 270° West 145 167 2,200  Level Chicago TRACON
08:39PM 41.7667 -87.8500 270° West 209 241 4,000 1,020 Climbing Chicago TRACON
08:39PM 41.7669 -87.8986 270° West 222 255 4,000  Level Chicago Center
08:40PM 41.7769 -87.9847 279° West 230 265 4,000 540 Level Chicago Center
08:41PM 41.7872 -88.0703 279° West 233 268 5,100 2,820 Climbing Chicago Center
08:42PM 41.7967 -88.1728 277° West 233 268 9,800 3,720 Climbing Chicago Center
08:43PM 41.7883 -88.2608 263° West 241 277 12,800 2,940 Climbing Chicago Center
08:44PM 41.8075 -88.3478 287° West 261 300 15,800 2,880 Climbing Chicago Center
08:46PM 41.8608 -88.4225 314° West 277 319 18,700 2,460 Climbing Chicago Center
08:47PM 41.9144 -88.4992 313° West 283 326 20,900 1,800 Climbing Chicago Center
08:48PM 41.9761 -88.5917 312° West 330 380 22,400 1,800 Climbing Chicago Center
08:49PM 42.0400 -88.6867 312° West 343 395 24,600 1,920 Climbing Chicago Center
08:50PM 42.0831 -88.8019 297° West 362 417 26,400 1,740 Climbing Chicago Center
08:51PM 42.0906 -88.9578 274° West 373 429 28,200 1,860 Climbing Chicago Center
08:52PM 42.0992 -89.0969 275° West 372 428 30,300 1,800 Climbing Chicago Center
08:53PM 42.1069 -89.2364 274° West 373 429 31,900 1,500 Climbing Chicago Center
08:54PM 42.1136 -89.3742 274° West 371 427 33,400 1,020 Climbing Chicago Center
08:55PM 42.1231 -89.5136 275° West 374 430 34,000 900 Climbing Chicago Center
08:56PM 42.1422 -89.6775 279° West 380 437 35,300 960 Climbing Chicago Center
08:57PM 42.1592 -89.8172 279° West 378 435 36,000 720 Climbing Chicago Center
08:58PM 42.1750 -89.9483 279° West 382 440 36,800 840 Climbing Chicago Center
08:59PM 42.1933 -90.0928 280° West 391 450 37,800 540 Climbing Chicago Center
09:00PM 42.2106 -90.2361 279° West 391 450 38,000 60 Climbing Chicago Center
09:01PM 42.2269 -90.3825 279° West 395 455 38,000  Level Chicago Center
09:02PM 42.2478 -90.5572 279° West 396 456 38,000  Level Chicago Center
09:03PM 42.2633 -90.7019 278° West 394 453 38,000  Level Chicago Center
09:04PM 42.2806 -90.8458 279° West 392 451 38,000  Level Chicago Center
09:05PM 42.2956 -90.9906 278° West 391 450 38,000  Level Chicago Center
09:06PM 42.3111 -91.1358 278° West 393 452 38,000  Level Chicago Center
09:07PM 42.3275 -91.2792 279° West 388 447 38,000  Level Chicago Center
09:08PM 42.3417 -91.4247 278° West 391 450 38,000  Level Chicago Center
09:09PM 42.3583 -91.5708 279° West 392 451 38,000  Level Chicago Center
09:10PM 42.3731 -91.7167 278° West 390 449 38,000  Level Chicago Center
09:11PM 42.3908 -91.8931 278° West 393 452 38,000  Level Chicago Center
09:12PM 42.4064 -92.0431 278° West 399 459 38,000  Level Chicago Center
09:13PM 42.4217 -92.1919 278° West 400 460 38,000  Level Chicago Center
09:14PM 42.4269 -92.2536 277° West 400 460 38,000  Level Minneapolis Center
09:15PM 42.4450 -92.4339 278° West 404 465 38,000  Level Minneapolis Center
09:16PM 42.4592 -92.5844 277° West 405 466 38,000  Level Minneapolis Center
09:17PM 42.4722 -92.7336 277° West 402 463 38,000  Level Minneapolis Center
09:18PM 42.4708 -92.8828 269° West 396 456 38,000  Level Minneapolis Center
09:19PM 42.4686 -93.0356 269° West 405 466 38,000  Level Minneapolis Center
09:20PM 42.4675 -93.1878 269° West 407 468 38,000  Level Minneapolis Center
09:21PM 42.4653 -93.3408 269° West 408 470 38,000  Level Minneapolis Center
09:22PM 42.4644 -93.4939 270° West 409 471 38,000  Level Minneapolis Center
09:23PM 42.4617 -93.6783 269° West 410 472 38,000  Level Minneapolis Center
09:24PM 42.4592 -93.8314 269° West 409 471 38,000  Level Minneapolis Center
09:25PM 42.4567 -93.9853 269° West 411 473 38,000  Level Minneapolis Center
09:26PM 42.4547 -94.1369 269° West 408 470 38,000  Level Minneapolis Center
09:27PM 42.4531 -94.2822 269° West 407 468 38,000  Level Minneapolis Center
09:28PM 42.4506 -94.4328 269° West 402 463 38,000  Level Minneapolis Center
09:29PM 42.4472 -94.5822 268° West 399 459 38,000  Level Minneapolis Center
09:30PM 42.4408 -94.7283 267° West 393 452 38,000  Level Minneapolis Center
09:31PM 42.4369 -94.9050 268° West 392 451 38,000  Level Minneapolis Center
09:32PM 42.4336 -95.0519 268° West 391 450 38,000  Level Minneapolis Center
09:33PM 42.4289 -95.1986 268° West 391 450 38,000  Level Minneapolis Center
09:34PM 42.4247 -95.3442 268° West 389 448 38,000  Level Minneapolis Center
09:35PM 42.4200 -95.4903 268° West 388 447 38,000  Level Minneapolis Center
09:36PM 42.4156 -95.6367 268° West 390 449 38,000  Level Minneapolis Center
09:37PM 42.4106 -95.7844 267° West 393 452 38,000  Level Minneapolis Center
09:38PM 42.4058 -95.9297 268° West 389 448 38,000  Level Minneapolis Center
09:39PM 42.4008 -96.0731 267° West 386 444 38,000  Level Minneapolis Center
09:40PM 42.3958 -96.2156 267° West 382 440 38,000  Level Minneapolis Center
09:41PM 42.3906 -96.3592 267° West 383 441 38,000  Level Minneapolis Center
09:42PM 42.3847 -96.5056 267° West 387 445 38,000  Level Minneapolis Center
09:43PM 42.3789 -96.6503 267° West 388 447 38,000  Level Minneapolis Center
09:44PM 42.3711 -96.8233 267° West 387 445 38,000  Level Minneapolis Center
09:45PM 42.3650 -96.9675 267° West 387 445 38,000  Level Minneapolis Center
09:46PM 42.3578 -97.1131 266° West 387 445 38,000  Level Minneapolis Center
09:47PM 42.3519 -97.2589 267° West 388 447 38,000  Level Minneapolis Center
09:48PM 42.3444 -97.4033 266° West 388 447 38,000  Level Minneapolis Center
09:49PM 42.3381 -97.5492 267° West 389 448 38,000  Level Minneapolis Center
09:50PM 42.3300 -97.6956 266° West 391 450 38,000  Level Minneapolis Center
09:51PM 42.3225 -97.8444 266° West 392 451 38,000  Level Minneapolis Center
09:52PM 42.3161 -97.9944 267° West 398 458 38,000  Level Minneapolis Center
09:53PM 42.3072 -98.1428 265° West 398 458 38,000  Level Minneapolis Center
09:54PM 42.3000 -98.2936 266° West 402 463 38,000  Level Minneapolis Center
09:55PM 42.2908 -98.4422 265° West 399 459 38,000  Level Minneapolis Center
09:56PM 42.2825 -98.5928 266° West 402 463 38,000  Level Minneapolis Center
09:57PM 42.2736 -98.7422 265° West 401 461 38,000  Level Minneapolis Center
09:58PM 42.2644 -98.8911 265° West 400 460 38,000  Level Minneapolis Center
09:59PM 42.2561 -99.0417 266° West 403 464 38,000  Level Minneapolis Center
10:00PM 42.2453 -99.2222 265° West 404 465 38,000  Level Minneapolis Center
10:01PM 42.2342 -99.3722 264° West 404 465 38,000  Level Minneapolis Center
10:02PM 42.2308 -99.4331 266° West 402 463 38,000  Level Denver Center
10:03PM 42.2206 -99.5831 265° West 402 463 38,000  Level Denver Center
10:04PM 42.2086 -99.7608 265° West 406 467 38,000  Level Denver Center
10:05PM 42.1989 -99.9039 265° West 404 465 38,000  Level Denver Center
10:06PM 42.1869 -100.0728 265° West 406 467 38,000  Level Denver Center
10:07PM 42.1769 -100.2167 265° West 405 466 38,000  Level Denver Center
10:08PM 42.1661 -100.3628 264° West 409 471 38,000  Level Denver Center
10:09PM 42.1539 -100.5311 264° West 406 467 38,000  Level Denver Center
10:10PM 42.1419 -100.6769 264° West 409 471 38,000  Level Denver Center
10:11PM 42.1303 -100.8442 265° West 404 465 38,000  Level Denver Center
10:12PM 42.1183 -100.9858 264° West 399 459 38,000  Level Denver Center
10:13PM 42.1069 -101.1286 264° West 401 461 38,000  Level Denver Center
10:14PM 42.0947 -101.2922 264° West 396 456 38,000  Level Denver Center
10:15PM 42.0819 -101.4333 263° West 398 458 38,000  Level Denver Center
10:16PM 42.0708 -101.5747 264° West 399 459 38,000  Level Denver Center
10:17PM 42.0572 -101.7378 264° West 394 453 38,000  Level Denver Center
10:18PM 42.0447 -101.8808 263° West 402 463 38,000  Level Denver Center
10:19PM 42.0303 -102.0442 263° West 396 456 38,000  Level Denver Center
10:20PM 42.0186 -102.1839 264° West 396 456 38,000  Level Denver Center
10:21PM 42.0050 -102.3236 263° West 395 455 38,000  Level Denver Center
10:22PM 41.9900 -102.4842 263° West 389 448 38,000  Level Denver Center
10:23PM 41.9778 -102.6217 263° West 387 445 38,000  Level Denver Center
10:24PM 41.9647 -102.7583 263° West 386 444 38,000  Level Denver Center
10:25PM 41.9489 -102.9183 262° West 386 444 38,000  Level Denver Center
10:26PM 41.9350 -103.0569 262° West 390 449 38,000  Level Denver Center
10:27PM 41.9217 -103.1944 263° West 388 447 38,000  Level Denver Center
10:28PM 41.9056 -103.3564 262° West 391 450 38,000  Level Denver Center
10:29PM 41.8928 -103.4958 263° West 393 452 38,000  Level Denver Center
10:30PM 41.8883 -103.6364 268° West 393 452 38,000  Level Denver Center
10:31PM 41.8839 -103.8019 268° West 396 456 38,000  Level Denver Center
10:32PM 41.8783 -103.9450 267° West 399 459 38,000  Level Denver Center
10:33PM 41.8731 -104.0869 267° West 398 458 38,000  Level Denver Center
10:34PM 41.8675 -104.2511 267° West 394 453 38,000  Level Denver Center
10:35PM 41.8619 -104.3900 267° West 389 448 38,000  Level Denver Center
10:36PM 41.8547 -104.5522 267° West 389 448 38,000  Level Denver Center
10:38PM 41.8500 -104.6936 267° West 393 452 38,000  Level Denver Center
10:39PM 41.8436 -104.8372 267° West 399 459 38,000  Level Denver Center
10:40PM 41.8381 -104.9797 267° West 400 460 38,000  Level Denver Center
10:41PM 41.8306 -105.1444 267° West 398 458 38,000  Level Denver Center
10:42PM 41.8253 -105.2817 267° West 388 447 38,000  Level Denver Center
10:43PM 41.8178 -105.4133 266° West 377 434 38,000  Level Denver Center
10:44PM 41.8100 -105.5681 266° West 371 427 38,000  Level Denver Center
10:45PM 41.8031 -105.7025 266° West 375 432 38,000  Level Denver Center
10:46PM 41.7967 -105.8608 267° West 381 438 38,000  Level Denver Center
10:47PM 41.7892 -105.9967 266° West 382 440 38,000  Level Denver Center
10:48PM 41.7819 -106.1317 266° West 380 437 38,000  Level Denver Center
10:49PM 41.7731 -106.2881 266° West 376 433 38,000  Level Denver Center
10:50PM 41.7664 -106.4236 266° West 381 438 38,000  Level Denver Center
10:51PM 41.7569 -106.5678 265° West 379 436 38,000  Level Denver Center
10:52PM 41.7503 -106.7036 266° West 382 440 38,000  Level Denver Center
10:53PM 41.7397 -106.8603 265° West 380 437 38,000  Level Denver Center
10:54PM 41.7322 -106.9961 266° West 383 441 38,000  Level Denver Center
10:55PM 41.7239 -107.1319 265° West 383 441 38,000  Level Denver Center
10:56PM 41.7136 -107.2944 265° West 392 451 38,000  Level Denver Center
10:57PM 41.7042 -107.4347 265° West 397 457 38,000  Level Denver Center
10:58PM 41.6950 -107.5761 265° West 397 457 38,000  Level Denver Center
10:59PM 41.6839 -107.7406 265° West 399 459 38,000  Level Denver Center
11:00PM 41.6733 -107.8839 264° West 404 465 38,000  Level Denver Center
11:01PM 41.6647 -108.0261 265° West 402 463 38,000  Level Denver Center
11:02PM 41.6522 -108.1914 264° West 401 461 38,000  Level Denver Center
11:03PM 41.6453 -108.2861 264° West 399 459 38,000  Level Salt Lake Center
11:04PM 41.6356 -108.4258 265° West 395 455 38,000  Level Salt Lake Center
11:05PM 41.6244 -108.5681 264° West 401 461 38,000  Level Salt Lake Center
11:06PM 41.6128 -108.7314 265° West 399 459 38,000  Level Salt Lake Center
11:07PM 41.6011 -108.8728 264° West 402 463 38,000  Level Salt Lake Center
11:08PM 41.5825 -109.0353 261° West 403 464 38,000  Level Salt Lake Center
11:09PM 41.5381 -109.1633 245° Southwest 405 466 38,000  Level Salt Lake Center
11:10PM 41.4850 -109.3119 245° Southwest 406 467 38,000  Level Salt Lake Center
11:11PM 41.4392 -109.4419 245° Southwest 409 471 38,000  Level Salt Lake Center
11:12PM 41.3919 -109.5706 244° Southwest 407 468 38,000  Level Salt Lake Center
11:13PM 41.3381 -109.7214 245° Southwest 405 466 38,000  Level Salt Lake Center
11:14PM 41.2908 -109.8519 244° Southwest 408 470 38,000  Level Salt Lake Center
11:15PM 41.2431 -109.9831 244° Southwest 413 475 38,000  Level Salt Lake Center
11:16PM 41.1864 -110.1372 244° Southwest 416 479 38,000  Level Salt Lake Center
11:17PM 41.1381 -110.2689 244° Southwest 415 478 38,000  Level Salt Lake Center
11:18PM 41.0828 -110.4206 244° Southwest 410 472 38,000  Level Salt Lake Center
11:19PM 41.0339 -110.5503 243° Southwest 411 473 38,000  Level Salt Lake Center
11:20PM 40.9811 -110.6953 244° Southwest 411 473 38,000  Level Salt Lake Center
11:21PM 40.9317 -110.8264 244° Southwest 401 461 38,000  Level Salt Lake Center
11:22PM 40.8836 -110.9569 244° Southwest 396 456 38,000  Level Salt Lake Center
11:23PM 40.8342 -111.0889 244° Southwest 400 460 38,000  Level Salt Lake Center
11:24PM 40.7856 -111.2192 244° Southwest 397 457 38,000  Level Salt Lake Center
11:25PM 40.7358 -111.3486 243° Southwest 394 453 38,000  Level Salt Lake Center
11:26PM 40.6861 -111.4778 243° Southwest 393 452 38,000  Level Salt Lake Center
11:27PM 40.6364 -111.6058 243° Southwest 390 449 38,000  Level Salt Lake Center
11:28PM 40.5881 -111.7333 244° Southwest 387 445 38,000 240 Level Salt Lake Center
11:29PM 40.5392 -111.8569 243° Southwest 381 438 38,500 600 Climbing Salt Lake Center
11:30PM 40.4892 -111.9853 243° Southwest 391 450 39,300 720 Climbing Salt Lake Center
11:31PM 40.4389 -112.1136 243° Southwest 395 455 40,000 300 Climbing Salt Lake Center
11:32PM 40.3878 -112.2422 242° Southwest 397 457 40,000  Level Salt Lake Center
11:33PM 40.3378 -112.3722 243° Southwest 399 459 40,000  Level Salt Lake Center
11:34PM 40.2861 -112.5011 242° Southwest 400 460 40,000  Level Salt Lake Center
11:35PM 40.2353 -112.6281 242° Southwest 394 453 40,000  Level Salt Lake Center
11:36PM 40.1864 -112.7519 243° Southwest 384 442 40,000  Level Salt Lake Center
11:37PM 40.1369 -112.8742 242° Southwest 379 436 40,000  Level Salt Lake Center
11:38PM 40.0892 -112.9961 243° Southwest 377 434 40,000  Level Salt Lake Center
11:39PM 40.0375 -113.1178 241° Southwest 382 440 40,000  Level Salt Lake Center
11:40PM 39.9867 -113.2422 242° Southwest 389 448 40,000  Level Salt Lake Center
11:41PM 39.9256 -113.3931 242° Southwest 393 452 40,000 -420 Level Salt Lake Center
11:42PM 39.8747 -113.5172 242° Southwest 390 449 39,200 -900 Descending Salt Lake Center
11:43PM 39.8258 -113.6364 242° Southwest 378 435 38,300 -900 Descending Salt Lake Center
11:44PM 39.7797 -113.7500 242° Southwest 359 413 37,400 -900 Descending Salt Lake Center
11:45PM 39.7325 -113.8614 241° Southwest 360 414 36,500 -720 Descending Salt Lake Center
11:46PM 39.6836 -113.9789 242° Southwest 369 425 36,000 -300 Descending Salt Lake Center
11:47PM 39.6347 -114.0967 242° Southwest 371 427 36,000  Level Salt Lake Center
11:48PM 39.5869 -114.2117 242° Southwest 367 422 36,000  Level Salt Lake Center
11:49PM 39.5367 -114.3292 241° Southwest 373 429 36,000  Level Salt Lake Center
11:50PM 39.4847 -114.4550 242° Southwest 371 427 36,000  Level Salt Lake Center
11:51PM 39.4344 -114.5706 241° Southwest 382 440 36,000  Level Salt Lake Center
11:52PM 39.3756 -114.7050 240° Southwest 384 442 36,000  Level Salt Lake Center
11:53PM 39.3281 -114.8183 242° Southwest 378 435 36,000  Level Salt Lake Center
11:54PM 39.2797 -114.9311 241° Southwest 375 432 36,000  Level Salt Lake Center
11:55PM 39.2211 -115.0678 241° Southwest 385 443 36,000  Level Salt Lake Center
11:56PM 39.1706 -115.1861 241° Southwest 391 450 36,000  Level Salt Lake Center
11:57PM 39.1153 -115.3133 241° Southwest 394 453 36,000  Level Salt Lake Center
11:58PM 39.0633 -115.4286 240° Southwest 398 458 36,000  Level Salt Lake Center
11:59PM 39.0111 -115.5508 241° Southwest 392 451 36,000  Level Salt Lake Center
12:00AM 38.9678 -115.6492 240° Southwest 394 453 36,000  Level Salt Lake Center
12:01AM 38.9022 -115.7975 240° Southwest 399 459 36,000  Level Salt Lake Center
12:02AM 38.8475 -115.9214 240° Southwest 398 458 36,000  Level Salt Lake Center
12:03AM 38.7931 -116.0453 241° Southwest 397 457 36,000  Level Salt Lake Center
12:04AM 38.7381 -116.1686 240° Southwest 399 459 36,000  Level Salt Lake Center
12:05AM 38.6719 -116.3153 240° Southwest 396 456 36,000  Level Salt Lake Center
12:06AM 38.6172 -116.4369 240° Southwest 395 455 36,000  Level Salt Lake Center
12:07AM 38.5622 -116.5594 240° Southwest 398 458 36,000  Level Salt Lake Center
12:08AM 38.5064 -116.6817 240° Southwest 399 459 36,000  Level Salt Lake Center
12:09AM 38.4839 -116.7297 239° Southwest 398 458 36,000  Level Oakland Center
12:10AM 38.4219 -116.8489 236° Southwest 401 461 36,000  Level Oakland Center
12:11AM 38.3600 -116.9686 237° Southwest 405 466 36,000  Level Oakland Center
12:11AM 38.3222 -117.0400 236° Southwest 406 467 36,000  Level Salt Lake Center
12:12AM 38.2614 -117.1572 237° Southwest 403 464 36,000  Level Salt Lake Center
12:13AM 38.2314 -117.2147 236° Southwest 404 465 36,000  Level Oakland Center
12:14AM 38.1694 -117.3333 236° Southwest 402 463 36,000  Level Oakland Center
12:15AM 38.1161 -117.4344 236° Southwest 402 463 36,000  Level Oakland Center
12:16AM 38.0403 -117.5772 236° Southwest 408 470 36,000  Level Oakland Center
12:17AM 37.9758 -117.6989 236° Southwest 414 476 36,000 -300 Level Oakland Center
12:18AM 37.9106 -117.8222 236° Southwest 419 482 35,400 -780 Descending Oakland Center
12:19AM 37.8450 -117.9425 235° Southwest 418 481 34,500 -960 Descending Oakland Center
12:20AM 37.7789 -118.0664 236° Southwest 424 488 33,500 -1,020 Descending Oakland Center
12:21AM 37.7142 -118.1886 236° Southwest 420 483 32,500 -960 Descending Oakland Center
12:22AM 37.6458 -118.3142 236° Southwest 432 497 31,600 -960 Descending Oakland Center
12:23AM 37.5783 -118.4403 236° Southwest 432 497 30,600 -840 Descending Oakland Center
12:24AM 37.5111 -118.5642 236° Southwest 429 494 30,000 -300 Descending Oakland Center
12:25AM 37.4422 -118.6894 235° Southwest 434 499 30,000  Level Oakland Center
12:26AM 37.3839 -118.8342 243° Southwest 447 514 30,000  Level Oakland Center
12:27AM 37.3692 -118.9800 263° West 429 494 30,000  Level Oakland Center
12:28AM 37.3556 -119.1219 263° West 427 491 30,000 -480 Level Oakland Center
12:29AM 37.3431 -119.2719 264° West 447 514 29,100 -1,020 Descending Oakland Center
12:30AM 37.3250 -119.4231 261° West 424 488 28,000 -1,080 Descending Oakland Center
12:31AM 37.3103 -119.5631 263° West 417 480 27,000 -1,080 Descending Oakland Center
12:32AM 37.2936 -119.7125 262° West 410 472 25,900 -1,020 Descending Oakland Center
12:33AM 37.2797 -119.8433 262° West 407 468 25,000 -960 Descending Oakland Center
12:34AM 37.2642 -119.9814 262° West 401 461 24,000 -1,020 Descending Oakland Center
12:35AM 37.2489 -120.1167 262° West 392 451 23,000 -1,200 Descending Oakland Center
12:36AM 37.2339 -120.2492 262° West 412 474 21,700 -1,740 Descending Oakland Center
12:37AM 37.2194 -120.3742 262° West 369 425 19,500 -2,400 Descending Oakland Center
12:38AM 37.2000 -120.5000 259° West 407 468 17,000 -2,160 Descending Northern Cal TRACON
12:39AM 37.1833 -120.6000 258° West 356 410 15,500 -1,320 Descending Northern Cal TRACON
12:40AM 37.1500 -120.7167 250° West 357 411 14,600 -1,020 Descending Northern Cal TRACON
12:41AM 37.1167 -120.8500 253° West 359 413 13,500 -1,020 Descending Northern Cal TRACON
12:42AM 37.1000 -120.9500 258° West 357 411 12,700 -900 Descending Northern Cal TRACON
12:42AM 37.0978 -120.9656 260° West 344 396 12,500 -960 Descending Oakland Center
12:43AM 37.0864 -121.0842 263° West 342 394 11,500 -1,020 Descending Oakland Center
12:44AM 37.0758 -121.2089 264° West 340 391 10,500 -840 Descending Oakland Center
12:45AM 37.0667 -121.3253 264° West 338 389 9,900 -540 Descending Oakland Center
12:46AM 37.0561 -121.4331 263° West 324 373 9,500 -1,140 Descending Oakland Center
12:47AM 37.0500 -121.5261 265° West 282 325 7,700 -1,680 Descending Oakland Center
12:48AM 37.0767 -121.6089 292° West 284 327 6,200 -1,200 Descending Oakland Center
12:49AM 37.1244 -121.6756 312° West 268 308 5,400 -660 Descending Oakland Center
12:50AM 37.1667 -121.7167 322° Northwest 201 231 5,000 -900 Descending Northern Cal TRACON
12:51AM 37.2000 -121.7667 310° West 185 213 3,900 -1,020 Descending Northern Cal TRACON
12:51AM 37.2078 -121.7647 11° North 205 236 3,800 -960 Descending Oakland Center
12:52AM 37.2533 -121.8122 320° Northwest 186 214 2,700 -1,080 Descending Oakland Center
12:53AM 37.2911 -121.8531 319° Northwest 182 209 1,700 -900 Descending Oakland Center
12:54AM 37.3208 -121.8861 319° Northwest 156 180 900 -780 Descending Oakland Center
12:55AM 37.3472 -121.9133 321° Northwest 134 154 200 -720 Descending Oakland Center
12:57AM 37.3500 -121.9167 North  Level FlightAware Approximate
01:04AM 37.3627 -121.9291 North  Level Estimated